createdAt,value
2022-11-16T00:01:01.984Z,21.88
2022-11-16T00:03:29.646Z,21.25
2022-11-16T00:06:01.291Z,22.75
2022-11-16T00:08:33.517Z,22.52
2022-11-16T00:11:12.023Z,23.58
2022-11-16T00:13:40.590Z,23.58
2022-11-16T00:16:08.833Z,23.00
2022-11-16T00:18:36.444Z,23.25
2022-11-16T00:21:07.124Z,23.95
2022-11-16T00:23:36.621Z,25.38
2022-11-16T00:26:05.214Z,24.40
2022-11-16T00:28:33.523Z,22.35
2022-11-16T00:31:05.332Z,22.85
2022-11-16T00:33:33.112Z,23.40
2022-11-16T00:36:04.765Z,23.30
2022-11-16T00:38:33.105Z,25.50
2022-11-16T00:41:00.906Z,23.50
2022-11-16T00:43:28.703Z,22.50
2022-11-16T00:45:56.256Z,21.75
2022-11-16T00:48:23.722Z,22.27
2022-11-16T00:50:51.135Z,23.50
2022-11-16T00:53:19.485Z,22.02
2022-11-16T00:55:47.523Z,22.63
2022-11-16T00:58:15.202Z,21.77
2022-11-16T01:00:43.309Z,20.00
2022-11-16T01:03:11.065Z,20.70
2022-11-16T01:05:38.814Z,19.25
2022-11-16T01:08:06.557Z,19.15
2022-11-16T01:10:34.071Z,18.25
2022-11-16T01:13:01.894Z,17.25
2022-11-16T01:15:29.322Z,16.30
2022-11-16T01:17:57.253Z,16.90
2022-11-16T01:20:29.242Z,15.65
2022-11-16T01:22:57.273Z,16.02
2022-11-16T01:25:24.622Z,17.88
2022-11-16T01:27:52.290Z,17.40
2022-11-16T01:30:19.731Z,15.88
2022-11-16T01:32:47.225Z,16.77
2022-11-16T01:35:18.966Z,16.25
2022-11-16T01:37:46.735Z,18.20
2022-11-16T01:40:14.902Z,16.25
2022-11-16T01:42:42.609Z,16.38
2022-11-16T01:45:20.533Z,15.13
2022-11-16T01:47:48.342Z,16.25
2022-11-16T01:50:17.201Z,15.80
2022-11-16T01:52:47.806Z,15.52
2022-11-16T01:55:15.546Z,16.13
2022-11-16T01:57:44.832Z,15.68
2022-11-16T02:00:13.375Z,15.23
2022-11-16T02:02:40.931Z,16.15
2022-11-16T02:05:09.192Z,16.27
2022-11-16T02:07:59.843Z,16.15
2022-11-16T02:10:39.302Z,15.57
2022-11-16T02:13:07.695Z,15.82
2022-11-16T02:15:42.521Z,15.77
2022-11-16T02:18:19.321Z,16.02
2022-11-16T02:20:54.749Z,15.77
2022-11-16T02:23:46.569Z,15.25
2022-11-16T02:26:23.315Z,15.57
2022-11-16T02:29:09.942Z,14.25
2022-11-16T02:31:38.741Z,15.38
2022-11-16T02:34:07.440Z,14.57
2022-11-16T02:36:35.637Z,16.20
2022-11-16T02:39:04.911Z,15.65
2022-11-16T02:41:34.832Z,14.57
2022-11-16T02:44:11.175Z,15.25
2022-11-16T02:46:40.043Z,15.18
2022-11-16T02:49:10.814Z,16.15
2022-11-16T02:51:39.370Z,14.30
2022-11-16T02:54:13.196Z,15.35
2022-11-16T02:56:43.338Z,16.13
2022-11-16T02:59:15.205Z,14.77
2022-11-16T03:01:48.564Z,15.00
2022-11-16T03:04:19.881Z,15.77
2022-11-16T03:06:49.973Z,15.82
2022-11-16T03:09:24.810Z,15.45
2022-11-16T03:12:00.320Z,15.27
2022-11-16T03:14:30.171Z,16.35
2022-11-16T03:16:58.389Z,16.05
2022-11-16T03:19:38.409Z,15.95
2022-11-16T03:22:13.410Z,18.15
2022-11-16T03:24:41.798Z,17.35
2022-11-16T03:27:27.820Z,17.80
2022-11-16T03:30:08.893Z,16.77
2022-11-16T03:32:42.450Z,18.10
2022-11-16T03:35:22.451Z,17.15
2022-11-16T03:37:51.401Z,16.65
2022-11-16T03:40:19.589Z,17.15
2022-11-16T03:42:47.492Z,16.73
2022-11-16T03:45:15.170Z,15.48
2022-11-16T03:47:42.783Z,15.60
2022-11-16T03:50:11.020Z,15.55
2022-11-16T03:52:39.036Z,17.50
2022-11-16T03:55:06.683Z,16.67
2022-11-16T03:57:34.172Z,15.32
2022-11-16T04:00:01.741Z,15.45
2022-11-16T04:02:29.194Z,16.10
2022-11-16T04:05:15.370Z,17.95
2022-11-16T04:08:01.634Z,17.10
2022-11-16T04:10:47.752Z,16.90
2022-11-16T04:13:34.509Z,17.50
2022-11-16T04:16:20.593Z,17.10
2022-11-16T04:19:07.301Z,17.25
2022-11-16T04:22:02.622Z,18.00
2022-11-16T04:24:31.672Z,19.20
2022-11-16T04:27:20.290Z,18.60
2022-11-16T04:29:48.293Z,18.13
2022-11-16T04:32:34.843Z,16.60
2022-11-16T04:35:20.869Z,17.65
2022-11-16T04:37:52.835Z,17.30
2022-11-16T04:40:21.803Z,17.42
2022-11-16T04:42:53.339Z,16.95
2022-11-16T04:45:40.171Z,15.18
2022-11-16T04:48:08.186Z,17.33
2022-11-16T04:50:35.792Z,16.80
2022-11-16T04:53:03.677Z,16.85
2022-11-16T04:55:31.962Z,17.27
2022-11-16T04:57:59.505Z,17.80
2022-11-16T05:00:27.281Z,18.98
2022-11-16T05:03:00.802Z,17.48
2022-11-16T05:05:29.008Z,17.02
2022-11-16T05:07:56.861Z,17.60
2022-11-16T05:10:24.437Z,17.75
2022-11-16T05:12:52.244Z,17.55
2022-11-16T05:15:20.082Z,16.98
2022-11-16T05:17:47.701Z,16.63
2022-11-16T05:20:34.057Z,17.17
2022-11-16T05:23:01.431Z,17.15
2022-11-16T05:25:33.803Z,17.10
2022-11-16T05:28:04.199Z,17.00
2022-11-16T05:30:32.072Z,16.27
2022-11-16T05:32:59.805Z,16.75
2022-11-16T05:35:27.215Z,17.13
2022-11-16T05:37:54.723Z,16.63
2022-11-16T05:40:22.590Z,17.25
2022-11-16T05:42:50.168Z,18.50
2022-11-16T05:45:21.008Z,18.38
2022-11-16T05:47:49.096Z,18.35
2022-11-16T05:50:18.150Z,16.98
2022-11-16T05:52:45.797Z,16.75
2022-11-16T05:55:13.534Z,17.25
2022-11-16T05:57:41.334Z,17.20
2022-11-16T06:00:09.186Z,17.55
2022-11-16T06:02:36.884Z,16.33
2022-11-16T06:05:04.506Z,17.00
2022-11-16T06:07:32.062Z,16.92
2022-11-16T06:09:59.681Z,16.67
2022-11-16T06:12:27.354Z,17.30
2022-11-16T06:14:54.743Z,17.52
2022-11-16T06:17:22.292Z,19.17
2022-11-16T06:19:49.807Z,17.00
2022-11-16T06:22:17.534Z,17.70
2022-11-16T06:24:45.008Z,18.25
2022-11-16T06:27:12.751Z,18.50
2022-11-16T06:29:40.475Z,17.50
2022-11-16T06:32:08.372Z,17.15
2022-11-16T06:34:35.873Z,17.67
2022-11-16T06:37:03.475Z,17.88
2022-11-16T06:39:30.926Z,16.83
2022-11-16T06:41:58.822Z,17.20
2022-11-16T06:44:26.615Z,16.30
2022-11-16T06:46:54.463Z,16.13
2022-11-16T06:49:21.973Z,16.83
2022-11-16T06:51:49.559Z,17.17
2022-11-16T06:54:17.293Z,16.45
2022-11-16T06:56:44.896Z,17.42
2022-11-16T06:59:12.496Z,15.77
2022-11-16T07:01:40.407Z,16.33
2022-11-16T07:04:12.122Z,16.08
2022-11-16T07:06:40.423Z,16.00
2022-11-16T07:09:08.456Z,15.70
2022-11-16T07:11:36.770Z,15.80
2022-11-16T07:14:04.723Z,15.75
2022-11-16T07:16:32.236Z,14.70
2022-11-16T07:18:59.961Z,14.77
2022-11-16T07:21:27.566Z,15.00
2022-11-16T07:23:55.530Z,14.40
2022-11-16T07:26:23.464Z,14.38
2022-11-16T07:28:51.011Z,14.27
2022-11-16T07:31:19.174Z,13.82
2022-11-16T07:33:46.798Z,12.93
2022-11-16T07:36:15.418Z,13.27
2022-11-16T07:38:43.133Z,13.18
2022-11-16T07:41:15.483Z,12.85
2022-11-16T07:43:45.192Z,12.98
2022-11-16T07:46:45.392Z,12.43
2022-11-16T07:49:10.865Z,12.50
2022-11-16T07:51:39.676Z,12.25
2022-11-16T07:54:08.623Z,12.90
2022-11-16T07:56:36.115Z,11.93
2022-11-16T07:59:03.671Z,12.77
2022-11-16T08:01:31.212Z,12.13
2022-11-16T08:03:58.970Z,11.95
2022-11-16T08:06:28.067Z,11.57
2022-11-16T08:08:58.608Z,11.65
2022-11-16T08:11:27.017Z,11.48
2022-11-16T08:13:54.891Z,12.88
2022-11-16T08:16:24.056Z,12.05
2022-11-16T08:18:51.723Z,12.50
2022-11-16T08:21:20.319Z,11.75
2022-11-16T08:23:47.916Z,13.15
2022-11-16T08:26:16.674Z,12.25
2022-11-16T08:28:45.692Z,13.18
2022-11-16T08:31:18.082Z,12.20
2022-11-16T08:33:46.058Z,12.32
2022-11-16T08:36:17.483Z,12.35
2022-11-16T08:38:49.086Z,12.63
2022-11-16T08:41:17.102Z,12.60
2022-11-16T08:43:47.231Z,13.00
2022-11-16T08:46:15.716Z,11.93
2022-11-16T08:48:43.244Z,12.18
2022-11-16T08:51:20.166Z,12.75
2022-11-16T08:53:49.533Z,11.65
2022-11-16T08:56:18.047Z,12.20
2022-11-16T08:58:52.506Z,12.00
2022-11-16T09:01:24.220Z,12.43
2022-11-16T09:03:52.070Z,11.90
2022-11-16T09:06:20.029Z,12.45
2022-11-16T09:08:48.005Z,12.38
2022-11-16T09:11:17.265Z,12.30
2022-11-16T09:13:46.074Z,11.52
2022-11-16T09:16:16.955Z,12.15
2022-11-16T09:18:47.275Z,11.77
2022-11-16T09:21:22.529Z,12.63
2022-11-16T09:23:50.968Z,11.60
2022-11-16T09:26:21.537Z,12.88
2022-11-16T09:28:50.246Z,12.70
2022-11-16T09:31:23.194Z,12.68
2022-11-16T09:33:51.184Z,12.53
2022-11-16T09:36:18.629Z,13.10
2022-11-16T09:39:17.845Z,13.02
2022-11-16T09:41:53.340Z,13.20
2022-11-16T09:44:21.303Z,12.73
2022-11-16T09:46:51.043Z,12.90
2022-11-16T09:49:27.650Z,12.95
2022-11-16T09:51:57.184Z,12.52
2022-11-16T09:54:27.349Z,12.43
2022-11-16T09:56:58.635Z,12.50
2022-11-16T09:59:27.933Z,12.23
2022-11-16T10:02:16.240Z,13.85
2022-11-16T10:04:57.922Z,14.93
2022-11-16T10:07:26.378Z,16.60
2022-11-16T10:09:54.025Z,17.15
2022-11-16T10:12:37.024Z,17.10
2022-11-16T10:15:24.075Z,17.20
2022-11-16T10:18:00.809Z,16.52
2022-11-16T10:20:30.875Z,16.02
2022-11-16T10:23:11.797Z,17.02
2022-11-16T10:25:43.781Z,16.65
2022-11-16T10:28:26.840Z,17.50
2022-11-16T10:31:06.519Z,16.23
2022-11-16T10:33:37.459Z,15.60
2022-11-16T10:36:14.023Z,15.98
2022-11-16T10:38:42.674Z,17.20
2022-11-16T10:41:20.080Z,18.30
2022-11-16T10:43:49.569Z,15.80
2022-11-16T10:46:23.453Z,17.00
2022-11-16T10:49:23.524Z,17.08
2022-11-16T10:51:50.910Z,16.88
2022-11-16T10:54:19.213Z,20.60
2022-11-16T10:56:49.582Z,19.52
2022-11-16T10:59:21.806Z,19.95
2022-11-16T11:01:50.690Z,20.33
2022-11-16T11:04:25.507Z,20.38
2022-11-16T11:07:00.785Z,20.80
2022-11-16T11:09:35.975Z,21.60
2022-11-16T11:12:35.834Z,21.15
2022-11-16T11:15:12.556Z,22.42
2022-11-16T11:17:41.836Z,23.77
2022-11-16T11:20:09.545Z,24.30
2022-11-16T11:22:43.652Z,25.25
2022-11-16T11:25:21.636Z,22.70
2022-11-16T11:27:49.355Z,23.02
2022-11-16T11:30:20.870Z,22.15
2022-11-16T11:32:48.990Z,20.73
2022-11-16T11:35:43.000Z,20.15
2022-11-16T11:38:14.866Z,19.07
2022-11-16T11:40:56.077Z,19.00
2022-11-16T11:43:25.624Z,21.13
2022-11-16T11:46:04.672Z,19.40
2022-11-16T11:48:42.222Z,20.77
2022-11-16T11:51:16.446Z,19.88
2022-11-16T11:53:53.226Z,20.70
2022-11-16T11:56:21.980Z,20.00
2022-11-16T11:58:50.072Z,21.15
2022-11-16T12:01:23.752Z,21.00
2022-11-16T12:04:11.506Z,18.90
2022-11-16T12:06:44.288Z,20.67
2022-11-16T12:09:20.975Z,22.48
2022-11-16T12:11:48.435Z,21.02
2022-11-16T12:14:26.602Z,20.63
2022-11-16T12:16:57.484Z,19.65
2022-11-16T12:19:27.978Z,20.17
2022-11-16T12:22:01.601Z,21.63
2022-11-16T12:25:02.957Z,20.23
2022-11-16T12:27:43.481Z,20.25
2022-11-16T12:30:13.809Z,19.50
2022-11-16T12:32:59.939Z,19.20
2022-11-16T12:35:33.953Z,17.15
2022-11-16T12:38:08.387Z,16.85
2022-11-16T12:40:35.836Z,16.58
2022-11-16T12:43:09.693Z,17.05
2022-11-16T12:45:43.299Z,17.55
2022-11-16T12:48:29.788Z,18.02
2022-11-16T12:51:00.425Z,16.10
2022-11-16T12:53:46.461Z,17.63
2022-11-16T12:56:19.318Z,19.10
2022-11-16T12:59:08.489Z,19.13
2022-11-16T13:01:42.625Z,19.25
2022-11-16T13:04:36.315Z,20.35
2022-11-16T13:07:11.332Z,18.67
2022-11-16T13:09:42.839Z,18.08
2022-11-16T13:12:18.085Z,18.40
2022-11-16T13:14:48.432Z,18.60
2022-11-16T13:17:22.011Z,18.27
2022-11-16T13:20:03.495Z,19.30
2022-11-16T13:22:32.849Z,18.42
2022-11-16T13:25:23.811Z,19.25
2022-11-16T13:27:55.890Z,17.42
2022-11-16T13:30:25.791Z,19.45
2022-11-16T13:32:56.599Z,20.48
2022-11-16T13:35:24.354Z,20.77
2022-11-16T13:37:52.658Z,20.08
2022-11-16T13:40:20.071Z,20.67
2022-11-16T13:43:03.037Z,21.42
2022-11-16T13:45:36.077Z,18.73
2022-11-16T13:48:05.480Z,19.17
2022-11-16T13:50:37.788Z,21.30
2022-11-16T13:56:00.418Z,18.58
2022-11-16T13:58:28.882Z,19.67
2022-11-16T14:01:08.268Z,18.70
2022-11-16T14:03:38.830Z,19.73
2022-11-16T14:06:21.309Z,19.13
2022-11-16T14:08:52.890Z,23.10
2022-11-16T14:11:29.526Z,22.05
2022-11-16T14:13:57.068Z,19.98
2022-11-16T14:16:24.641Z,12.90
2022-11-16T14:19:02.552Z,14.10
2022-11-16T14:21:40.513Z,12.07
2022-11-16T14:24:08.013Z,11.38
2022-11-16T14:26:58.747Z,10.98
2022-11-16T14:29:50.500Z,10.00
2022-11-16T14:32:29.609Z,10.70
2022-11-16T14:34:58.277Z,10.30
2022-11-16T14:37:28.688Z,10.27
2022-11-16T14:40:18.744Z,11.15
2022-11-16T14:43:20.209Z,10.10
2022-11-16T14:45:49.873Z,10.02
2022-11-16T14:48:19.144Z,10.30
2022-11-16T14:50:48.032Z,10.48
2022-11-16T14:53:18.134Z,10.32
2022-11-16T14:55:46.490Z,9.80
2022-11-16T14:58:21.734Z,10.60
2022-11-16T15:01:00.304Z,9.35
2022-11-16T15:03:43.573Z,9.13
2022-11-16T15:06:11.345Z,10.25
2022-11-16T15:08:44.249Z,10.63
2022-11-16T15:11:20.916Z,10.57
2022-11-16T15:13:48.605Z,10.63
2022-11-16T15:16:17.711Z,9.50
2022-11-16T15:19:02.139Z,9.95
2022-11-16T15:21:30.573Z,9.45
2022-11-16T15:26:45.695Z,8.70
2022-11-16T15:29:19.734Z,9.00
2022-11-16T15:31:47.826Z,15.80
2022-11-16T15:34:20.214Z,14.20
2022-11-16T15:36:49.184Z,10.02
2022-11-16T15:39:21.035Z,9.82
2022-11-16T15:41:49.343Z,11.43
2022-11-16T15:44:21.351Z,19.25
2022-11-16T15:46:50.298Z,12.07
2022-11-16T15:49:31.539Z,11.23
2022-11-16T15:51:59.585Z,11.00
2022-11-16T15:54:51.704Z,10.50
2022-11-16T15:57:20.529Z,10.15
2022-11-16T15:59:49.696Z,9.95
2022-11-16T16:02:21.728Z,10.02
2022-11-16T16:04:49.394Z,10.55
2022-11-16T16:07:35.634Z,12.23
2022-11-16T16:10:21.576Z,10.30
2022-11-16T16:12:51.318Z,10.57
2022-11-16T16:15:34.437Z,10.70
2022-11-16T16:18:03.511Z,13.27
2022-11-16T16:20:32.152Z,14.02
2022-11-16T16:23:10.315Z,23.25
2022-11-16T16:25:38.608Z,22.67
2022-11-16T16:28:06.807Z,20.05
2022-11-16T16:30:35.684Z,15.77
2022-11-16T16:33:03.434Z,14.52
2022-11-16T16:35:30.880Z,19.23
2022-11-16T16:37:59.683Z,14.75
2022-11-16T16:40:27.398Z,21.38
2022-11-16T16:42:56.430Z,31.48
2022-11-16T16:45:38.941Z,28.35
2022-11-16T16:48:07.274Z,30.70
2022-11-16T16:50:34.841Z,26.15
2022-11-16T16:53:02.834Z,22.77
2022-11-16T16:55:34.297Z,20.65
2022-11-16T17:00:34.116Z,26.67
2022-11-16T17:03:02.500Z,23.30
2022-11-16T17:05:31.231Z,24.77
2022-11-16T17:07:58.835Z,24.70
2022-11-16T17:10:26.475Z,24.63
2022-11-16T17:12:58.416Z,26.02
2022-11-16T17:15:26.233Z,30.65
2022-11-16T17:17:53.659Z,29.15
2022-11-16T17:20:21.385Z,30.13
2022-11-16T17:22:48.915Z,33.28
2022-11-16T17:25:17.082Z,25.75
2022-11-16T17:27:44.615Z,23.10
2022-11-16T17:30:12.641Z,28.92
2022-11-16T17:32:43.108Z,24.67
2022-11-16T17:35:14.915Z,22.95
2022-11-16T17:37:46.159Z,18.45
2022-11-16T17:40:15.241Z,18.13
2022-11-16T17:42:43.709Z,15.25
2022-11-16T17:45:12.582Z,17.92
2022-11-16T17:47:40.282Z,35.78
2022-11-16T17:50:09.703Z,22.73
2022-11-16T17:52:37.281Z,16.17
2022-11-16T17:55:04.981Z,16.98
2022-11-16T17:57:32.911Z,20.75
2022-11-16T18:00:00.483Z,22.00
2022-11-16T18:02:28.045Z,20.10
2022-11-16T18:04:57.131Z,20.02
2022-11-16T18:07:24.693Z,22.70
2022-11-16T18:09:52.305Z,27.42
2022-11-16T18:12:19.967Z,25.65
2022-11-16T18:15:13.569Z,25.88
2022-11-16T18:17:36.612Z,24.35
2022-11-16T18:20:05.076Z,23.20
2022-11-16T18:22:32.814Z,28.98
2022-11-16T18:25:00.491Z,25.08
2022-11-16T18:27:28.045Z,25.30
2022-11-16T18:29:55.438Z,23.90
2022-11-16T18:32:23.173Z,24.60
2022-11-16T18:34:50.997Z,24.35
2022-11-16T18:37:19.655Z,27.40
2022-11-16T18:39:47.353Z,25.23
2022-11-16T18:42:15.002Z,22.67
2022-11-16T18:44:42.462Z,19.35
2022-11-16T18:47:09.872Z,14.98
2022-11-16T18:49:37.743Z,16.30
2022-11-16T18:52:05.574Z,14.45
2022-11-16T18:54:33.077Z,15.32
2022-11-16T18:57:00.680Z,18.42
2022-11-16T18:59:28.212Z,17.27
2022-11-16T19:01:55.950Z,16.10
2022-11-16T19:04:23.285Z,18.48
2022-11-16T19:06:50.983Z,17.15
2022-11-16T19:09:18.553Z,17.55
2022-11-16T19:11:46.252Z,13.30
2022-11-16T19:14:13.666Z,13.13
2022-11-16T19:16:48.966Z,17.25
2022-11-16T19:19:19.076Z,25.73
2022-11-16T19:21:46.624Z,18.17
2022-11-16T19:24:14.164Z,17.65
2022-11-16T19:26:41.694Z,14.50
2022-11-16T19:29:09.243Z,17.50
2022-11-16T19:31:36.954Z,19.98
2022-11-16T19:34:05.886Z,49.35
2022-11-16T19:36:34.512Z,14.13
2022-11-16T19:39:02.308Z,24.70
2022-11-16T19:41:29.941Z,23.98
2022-11-16T19:44:02.051Z,32.35
2022-11-16T19:46:30.789Z,50.50
2022-11-16T19:48:59.044Z,22.50
2022-11-16T19:51:28.211Z,94.18
2022-11-16T19:53:57.070Z,143.48
2022-11-16T19:56:25.042Z,28.08
2022-11-16T19:58:52.923Z,15.27
2022-11-16T20:01:21.849Z,16.98
2022-11-16T20:03:50.233Z,15.77
2022-11-16T20:06:21.899Z,14.00
2022-11-16T20:08:51.110Z,13.88
2022-11-16T20:11:20.792Z,14.25
2022-11-16T20:13:52.246Z,15.60
2022-11-16T20:16:20.662Z,12.77
2022-11-16T20:18:48.392Z,13.27
2022-11-16T20:21:26.261Z,14.52
2022-11-16T20:23:54.477Z,13.25
2022-11-16T20:26:22.198Z,14.52
2022-11-16T20:28:52.568Z,13.25
2022-11-16T20:31:21.820Z,12.93
2022-11-16T20:33:53.432Z,14.40
2022-11-16T20:36:21.453Z,12.02
2022-11-16T20:38:49.028Z,13.88
2022-11-16T20:41:16.940Z,14.75
2022-11-16T20:43:45.163Z,13.88
2022-11-16T20:46:13.889Z,12.93
2022-11-16T20:48:43.383Z,16.13
2022-11-16T20:51:12.093Z,13.95
2022-11-16T20:53:39.952Z,11.82
2022-11-16T20:56:08.759Z,11.65
2022-11-16T20:58:36.237Z,12.73
2022-11-16T21:01:08.601Z,15.32
2022-11-16T21:03:37.725Z,12.30
2022-11-16T21:06:09.252Z,13.48
2022-11-16T21:08:37.679Z,14.77
2022-11-16T21:11:12.353Z,15.10
2022-11-16T21:13:58.410Z,13.73
2022-11-16T21:16:26.210Z,13.63
2022-11-16T21:18:55.584Z,13.55
2022-11-16T21:21:23.397Z,13.82
2022-11-16T21:23:54.509Z,13.13
2022-11-16T21:26:23.191Z,14.13
2022-11-16T21:28:51.014Z,12.88
2022-11-16T21:31:26.404Z,11.63
2022-11-16T21:33:54.640Z,14.07
2022-11-16T21:36:23.441Z,15.15
2022-11-16T21:38:51.362Z,13.88
2022-11-16T21:41:19.433Z,11.23
2022-11-16T21:43:47.108Z,10.60
2022-11-16T21:46:15.800Z,10.90
2022-11-16T21:48:43.512Z,12.52
2022-11-16T21:51:13.381Z,12.95
2022-11-16T21:53:41.140Z,12.02
2022-11-16T21:56:09.254Z,15.38
2022-11-16T21:58:36.730Z,13.05
2022-11-16T22:01:04.781Z,12.25
2022-11-16T22:03:33.125Z,13.80
2022-11-16T22:06:27.899Z,12.23
2022-11-16T22:08:57.036Z,11.10
2022-11-16T22:11:24.792Z,11.55
2022-11-16T22:13:52.712Z,11.27
2022-11-16T22:16:23.739Z,16.52
2022-11-16T22:18:51.539Z,13.70
2022-11-16T22:21:19.028Z,14.63
2022-11-16T22:23:46.883Z,15.32
2022-11-16T22:26:15.111Z,12.73
2022-11-16T22:28:42.810Z,13.32
2022-11-16T22:31:15.053Z,12.48
2022-11-16T22:33:42.823Z,11.75
2022-11-16T22:36:11.228Z,11.98
2022-11-16T22:38:39.029Z,9.70
2022-11-16T22:41:06.603Z,10.48
2022-11-16T22:43:34.321Z,10.98
2022-11-16T22:46:03.137Z,9.88
2022-11-16T22:48:34.821Z,10.60
2022-11-16T22:51:03.144Z,10.63
2022-11-16T22:53:30.562Z,15.65
2022-11-16T22:56:03.932Z,12.35
2022-11-16T22:58:31.655Z,13.80
2022-11-16T23:00:59.185Z,13.65
2022-11-16T23:03:26.963Z,11.73
2022-11-16T23:05:54.499Z,11.70
2022-11-16T23:08:25.087Z,10.10
2022-11-16T23:11:27.985Z,11.38
2022-11-16T23:14:14.391Z,10.60
2022-11-16T23:16:42.414Z,12.43
2022-11-16T23:19:29.492Z,10.82
2022-11-16T23:22:16.295Z,9.40
2022-11-16T23:25:02.340Z,11.68
2022-11-16T23:27:31.015Z,12.30
2022-11-16T23:30:06.426Z,11.23
2022-11-16T23:32:37.094Z,10.55
2022-11-16T23:35:04.880Z,11.38
2022-11-16T23:37:32.772Z,10.00
2022-11-16T23:40:00.330Z,12.52
2022-11-16T23:42:46.570Z,9.77
2022-11-16T23:45:14.150Z,10.70
2022-11-16T23:47:41.580Z,11.13
2022-11-16T23:50:09.135Z,11.20
2022-11-16T23:52:36.910Z,11.05
2022-11-16T23:55:04.492Z,10.80
2022-11-16T23:57:32.263Z,11.30
2022-11-16T23:59:59.685Z,12.00
